OMSJ/SHJ METAR and TAF weather

Enter ICAO airport designator
Station Type Date Time Source
OMSJ METAR 2019/12/08 11:00 UTC NOAA

OMSJ 081100Z 01004KT 330V040 CAVOK 27/15 Q1014 BECMG 32012KT


Station Type Date Time Source
OMSJ Decoded METAR 2019/12/08 11:00 UTC NOAA

Sharjah International Airport, United Arab Emirates (OMSJ) 25-20N 055-31E 33M
Dec 08, 2019 - 06:00 AM EST / 2019.12.08 1100 UTC
Wind: from the N (010 degrees) at 5 MPH (4 KT) (direction variable):0
Visibility: greater than 7 mile(s):0
Temperature: 80 F (27 C)
Dew Point: 59 F (15 C)
Relative Humidity: 47%
Pressure (altimeter): 29.94 in. Hg (1014 hPa)
ob: OMSJ 081100Z 01004KT 330V040 CAVOK 27/15 Q1014 BECMG 32012KT
cycle: 11

Station Type Date Time Source
OMSJ TAF 2019/12/08 12:06 UTC NOAA

TAF TAF OMSJ 081054Z 0812/0918 35012KT 8000 FEW040
BECMG 0813/0815 10008KT PROB30 0901/0905 4000 HZ PROB30
TEMPO 0902/0915 VRB22G38KT 1500 TSRA BLDU FEW035CB
BECMG 0903/0905 17010KT
BECMG 0909/0911 33015KT
BECMG 0914/0916 08008KT

Example: see airport list